sensor_id;sensor_type;location;lat;lon;timestamp;P1;durP1;ratioP1;P2;durP2;ratioP2
27489;SDS011;14925;51.026;13.752;2022-11-15T00:00:57;111.20;;;61.22;;
27489;SDS011;14925;51.026;13.752;2022-11-15T00:03:23;118.88;;;61.88;;
27489;SDS011;14925;51.026;13.752;2022-11-15T00:05:50;118.75;;;65.68;;
27489;SDS011;14925;51.026;13.752;2022-11-15T00:08:16;117.45;;;63.75;;
27489;SDS011;14925;51.026;13.752;2022-11-15T00:10:42;104.03;;;60.17;;
27489;SDS011;14925;51.026;13.752;2022-11-15T00:13:08;103.78;;;58.15;;
27489;SDS011;14925;51.026;13.752;2022-11-15T00:15:39;106.07;;;58.72;;
27489;SDS011;14925;51.026;13.752;2022-11-15T00:18:06;111.07;;;62.10;;
27489;SDS011;14925;51.026;13.752;2022-11-15T00:20:41;111.72;;;61.42;;
27489;SDS011;14925;51.026;13.752;2022-11-15T00:23:09;108.63;;;60.85;;
27489;SDS011;14925;51.026;13.752;2022-11-15T00:25:37;118.72;;;63.35;;
27489;SDS011;14925;51.026;13.752;2022-11-15T00:28:03;108.20;;;60.20;;
27489;SDS011;14925;51.026;13.752;2022-11-15T00:30:31;115.40;;;63.72;;
27489;SDS011;14925;51.026;13.752;2022-11-15T00:33:03;113.78;;;62.97;;
27489;SDS011;14925;51.026;13.752;2022-11-15T00:35:30;107.05;;;61.10;;
27489;SDS011;14925;51.026;13.752;2022-11-15T00:37:57;111.28;;;61.80;;
27489;SDS011;14925;51.026;13.752;2022-11-15T00:40:30;116.88;;;61.60;;
27489;SDS011;14925;51.026;13.752;2022-11-15T00:42:56;105.38;;;59.67;;
27489;SDS011;14925;51.026;13.752;2022-11-15T00:45:21;115.88;;;65.20;;
27489;SDS011;14925;51.026;13.752;2022-11-15T00:47:47;113.35;;;63.05;;
27489;SDS011;14925;51.026;13.752;2022-11-15T00:50:13;116.50;;;64.22;;
27489;SDS011;14925;51.026;13.752;2022-11-15T00:52:40;108.45;;;62.35;;
27489;SDS011;14925;51.026;13.752;2022-11-15T00:55:06;113.40;;;62.25;;
27489;SDS011;14925;51.026;13.752;2022-11-15T00:57:33;119.47;;;65.43;;
27489;SDS011;14925;51.026;13.752;2022-11-15T00:59:58;112.55;;;63.30;;
27489;SDS011;14925;51.026;13.752;2022-11-15T01:02:32;117.72;;;64.72;;
27489;SDS011;14925;51.026;13.752;2022-11-15T01:04:57;110.93;;;62.22;;
27489;SDS011;14925;51.026;13.752;2022-11-15T01:07:23;119.97;;;64.82;;
27489;SDS011;14925;51.026;13.752;2022-11-15T01:09:50;117.82;;;64.35;;
27489;SDS011;14925;51.026;13.752;2022-11-15T01:12:23;126.57;;;64.93;;
27489;SDS011;14925;51.026;13.752;2022-11-15T01:14:51;117.47;;;63.30;;
27489;SDS011;14925;51.026;13.752;2022-11-15T01:17:19;119.85;;;64.85;;
27489;SDS011;14925;51.026;13.752;2022-11-15T01:19:44;129.63;;;67.53;;
27489;SDS011;14925;51.026;13.752;2022-11-15T01:22:10;126.25;;;66.70;;
27489;SDS011;14925;51.026;13.752;2022-11-15T01:24:40;134.52;;;66.68;;
27489;SDS011;14925;51.026;13.752;2022-11-15T01:27:08;128.85;;;65.60;;
27489;SDS011;14925;51.026;13.752;2022-11-15T01:29:34;124.85;;;64.93;;
27489;SDS011;14925;51.026;13.752;2022-11-15T01:31:59;122.57;;;63.92;;
27489;SDS011;14925;51.026;13.752;2022-11-15T01:34:25;123.65;;;64.13;;
27489;SDS011;14925;51.026;13.752;2022-11-15T01:36:56;131.70;;;66.45;;
27489;SDS011;14925;51.026;13.752;2022-11-15T01:39:24;128.68;;;65.43;;
27489;SDS011;14925;51.026;13.752;2022-11-15T01:41:51;129.82;;;66.47;;
27489;SDS011;14925;51.026;13.752;2022-11-15T01:47:08;129.38;;;65.53;;
27489;SDS011;14925;51.026;13.752;2022-11-15T01:49:40;139.80;;;69.13;;
27489;SDS011;14925;51.026;13.752;2022-11-15T01:52:12;133.43;;;66.93;;
27489;SDS011;14925;51.026;13.752;2022-11-15T01:54:40;139.52;;;68.95;;
27489;SDS011;14925;51.026;13.752;2022-11-15T01:57:07;139.32;;;66.93;;
27489;SDS011;14925;51.026;13.752;2022-11-15T01:59:34;136.15;;;65.75;;
27489;SDS011;14925;51.026;13.752;2022-11-15T02:02:04;117.40;;;62.22;;
27489;SDS011;14925;51.026;13.752;2022-11-15T02:04:31;139.93;;;67.65;;
27489;SDS011;14925;51.026;13.752;2022-11-15T02:07:01;128.52;;;64.72;;
27489;SDS011;14925;51.026;13.752;2022-11-15T02:09:30;136.18;;;64.97;;
27489;SDS011;14925;51.026;13.752;2022-11-15T02:11:56;134.20;;;67.03;;
27489;SDS011;14925;51.026;13.752;2022-11-15T02:14:24;135.65;;;66.07;;
27489;SDS011;14925;51.026;13.752;2022-11-15T02:30:33;125.32;;;62.60;;
27489;SDS011;14925;51.026;13.752;2022-11-15T02:38:17;135.43;;;63.85;;
27489;SDS011;14925;51.026;13.752;2022-11-15T02:41:09;139.65;;;63.97;;
27489;SDS011;14925;51.026;13.752;2022-11-15T02:43:41;141.77;;;65.93;;
27489;SDS011;14925;51.026;13.752;2022-11-15T02:49:19;138.65;;;64.18;;
27489;SDS011;14925;51.026;13.752;2022-11-15T02:51:45;133.93;;;63.75;;
27489;SDS011;14925;51.026;13.752;2022-11-15T02:54:12;121.82;;;60.55;;
27489;SDS011;14925;51.026;13.752;2022-11-15T02:56:39;128.07;;;62.38;;
27489;SDS011;14925;51.026;13.752;2022-11-15T03:04:45;122.00;;;58.90;;
27489;SDS011;14925;51.026;13.752;2022-11-15T03:07:22;135.80;;;62.80;;
27489;SDS011;14925;51.026;13.752;2022-11-15T03:12:49;128.57;;;60.58;;
27489;SDS011;14925;51.026;13.752;2022-11-15T03:15:33;127.13;;;60.25;;
27489;SDS011;14925;51.026;13.752;2022-11-15T03:18:11;136.25;;;59.45;;
27489;SDS011;14925;51.026;13.752;2022-11-15T03:20:58;138.10;;;62.13;;
27489;SDS011;14925;51.026;13.752;2022-11-15T03:23:25;119.10;;;57.25;;
27489;SDS011;14925;51.026;13.752;2022-11-15T03:25:51;128.23;;;59.72;;
27489;SDS011;14925;51.026;13.752;2022-11-15T03:28:19;124.43;;;59.25;;
27489;SDS011;14925;51.026;13.752;2022-11-15T03:30:47;127.18;;;61.45;;
27489;SDS011;14925;51.026;13.752;2022-11-15T03:33:14;130.70;;;60.40;;
27489;SDS011;14925;51.026;13.752;2022-11-15T03:35:42;125.28;;;57.80;;
27489;SDS011;14925;51.026;13.752;2022-11-15T03:38:22;133.63;;;61.67;;
27489;SDS011;14925;51.026;13.752;2022-11-15T03:40:59;128.50;;;58.95;;
27489;SDS011;14925;51.026;13.752;2022-11-15T03:46:19;130.02;;;60.33;;
27489;SDS011;14925;51.026;13.752;2022-11-15T03:49:10;137.95;;;60.78;;
27489;SDS011;14925;51.026;13.752;2022-11-15T03:51:39;135.45;;;60.83;;
27489;SDS011;14925;51.026;13.752;2022-11-15T03:54:04;124.78;;;57.90;;
27489;SDS011;14925;51.026;13.752;2022-11-15T03:56:30;133.55;;;59.72;;
27489;SDS011;14925;51.026;13.752;2022-11-15T03:58:56;132.95;;;59.67;;
27489;SDS011;14925;51.026;13.752;2022-11-15T04:01:21;131.77;;;59.03;;
27489;SDS011;14925;51.026;13.752;2022-11-15T04:03:50;127.45;;;57.67;;
27489;SDS011;14925;51.026;13.752;2022-11-15T04:06:15;127.05;;;58.58;;
27489;SDS011;14925;51.026;13.752;2022-11-15T04:08:41;111.82;;;53.63;;
27489;SDS011;14925;51.026;13.752;2022-11-15T04:11:09;124.45;;;57.13;;
27489;SDS011;14925;51.026;13.752;2022-11-15T04:13:34;125.95;;;57.47;;
27489;SDS011;14925;51.026;13.752;2022-11-15T04:16:02;120.10;;;55.90;;
27489;SDS011;14925;51.026;13.752;2022-11-15T04:18:31;123.10;;;56.35;;
27489;SDS011;14925;51.026;13.752;2022-11-15T04:20:56;128.15;;;56.63;;
27489;SDS011;14925;51.026;13.752;2022-11-15T04:23:40;115.03;;;54.97;;
27489;SDS011;14925;51.026;13.752;2022-11-15T04:26:24;118.05;;;56.08;;
27489;SDS011;14925;51.026;13.752;2022-11-15T04:29:07;123.18;;;56.28;;
27489;SDS011;14925;51.026;13.752;2022-11-15T04:31:51;121.22;;;55.80;;
27489;SDS011;14925;51.026;13.752;2022-11-15T04:34:17;138.88;;;60.20;;
27489;SDS011;14925;51.026;13.752;2022-11-15T04:36:42;128.73;;;58.25;;
27489;SDS011;14925;51.026;13.752;2022-11-15T04:39:26;118.47;;;56.25;;
27489;SDS011;14925;51.026;13.752;2022-11-15T04:41:55;127.82;;;57.03;;
27489;SDS011;14925;51.026;13.752;2022-11-15T04:46:58;122.80;;;54.63;;
27489;SDS011;14925;51.026;13.752;2022-11-15T04:49:23;121.07;;;55.20;;
27489;SDS011;14925;51.026;13.752;2022-11-15T04:51:49;125.65;;;56.90;;
27489;SDS011;14925;51.026;13.752;2022-11-15T04:54:22;123.28;;;55.65;;
27489;SDS011;14925;51.026;13.752;2022-11-15T04:56:50;125.82;;;57.90;;
27489;SDS011;14925;51.026;13.752;2022-11-15T04:59:18;120.55;;;55.60;;
27489;SDS011;14925;51.026;13.752;2022-11-15T05:01:45;120.55;;;55.45;;
27489;SDS011;14925;51.026;13.752;2022-11-15T05:04:11;119.57;;;55.97;;
27489;SDS011;14925;51.026;13.752;2022-11-15T05:06:46;108.15;;;53.33;;
27489;SDS011;14925;51.026;13.752;2022-11-15T05:09:15;114.47;;;54.15;;
27489;SDS011;14925;51.026;13.752;2022-11-15T05:11:41;116.32;;;53.30;;
27489;SDS011;14925;51.026;13.752;2022-11-15T05:14:09;123.57;;;54.08;;
27489;SDS011;14925;51.026;13.752;2022-11-15T05:16:35;107.63;;;50.92;;
27489;SDS011;14925;51.026;13.752;2022-11-15T05:19:01;121.60;;;55.38;;
27489;SDS011;14925;51.026;13.752;2022-11-15T05:21:27;121.05;;;54.63;;
27489;SDS011;14925;51.026;13.752;2022-11-15T05:23:55;121.50;;;54.30;;
27489;SDS011;14925;51.026;13.752;2022-11-15T05:26:23;109.35;;;51.67;;
27489;SDS011;14925;51.026;13.752;2022-11-15T05:28:53;118.10;;;53.03;;
27489;SDS011;14925;51.026;13.752;2022-11-15T05:31:19;122.70;;;54.88;;
27489;SDS011;14925;51.026;13.752;2022-11-15T05:33:44;114.50;;;52.88;;
27489;SDS011;14925;51.026;13.752;2022-11-15T05:36:17;105.45;;;50.28;;
27489;SDS011;14925;51.026;13.752;2022-11-15T05:38:47;119.25;;;54.58;;
27489;SDS011;14925;51.026;13.752;2022-11-15T05:41:13;113.45;;;52.15;;
27489;SDS011;14925;51.026;13.752;2022-11-15T05:43:43;119.40;;;52.15;;
27489;SDS011;14925;51.026;13.752;2022-11-15T05:46:08;115.65;;;53.60;;
27489;SDS011;14925;51.026;13.752;2022-11-15T05:48:34;114.03;;;53.10;;
27489;SDS011;14925;51.026;13.752;2022-11-15T05:51:01;121.75;;;56.13;;
27489;SDS011;14925;51.026;13.752;2022-11-15T05:53:27;115.65;;;52.35;;
27489;SDS011;14925;51.026;13.752;2022-11-15T05:55:53;122.50;;;55.35;;
27489;SDS011;14925;51.026;13.752;2022-11-15T05:58:18;116.97;;;55.03;;
27489;SDS011;14925;51.026;13.752;2022-11-15T06:00:45;126.32;;;54.85;;
27489;SDS011;14925;51.026;13.752;2022-11-15T06:03:10;124.78;;;55.08;;
27489;SDS011;14925;51.026;13.752;2022-11-15T06:05:36;117.25;;;52.90;;
27489;SDS011;14925;51.026;13.752;2022-11-15T06:08:01;121.28;;;54.85;;
27489;SDS011;14925;51.026;13.752;2022-11-15T06:10:27;140.68;;;58.00;;
27489;SDS011;14925;51.026;13.752;2022-11-15T06:12:58;119.07;;;54.85;;
27489;SDS011;14925;51.026;13.752;2022-11-15T06:15:24;129.68;;;57.88;;
27489;SDS011;14925;51.026;13.752;2022-11-15T06:17:50;140.65;;;58.25;;
27489;SDS011;14925;51.026;13.752;2022-11-15T06:20:22;118.20;;;53.95;;
27489;SDS011;14925;51.026;13.752;2022-11-15T06:22:48;122.30;;;55.72;;
27489;SDS011;14925;51.026;13.752;2022-11-15T06:25:13;123.15;;;55.95;;
27489;SDS011;14925;51.026;13.752;2022-11-15T06:27:39;120.78;;;54.05;;
27489;SDS011;14925;51.026;13.752;2022-11-15T06:30:07;113.18;;;54.38;;
27489;SDS011;14925;51.026;13.752;2022-11-15T06:32:36;114.43;;;54.53;;
27489;SDS011;14925;51.026;13.752;2022-11-15T06:35:01;118.55;;;54.58;;
27489;SDS011;14925;51.026;13.752;2022-11-15T06:37:27;115.55;;;53.47;;
27489;SDS011;14925;51.026;13.752;2022-11-15T06:39:55;110.90;;;53.45;;
27489;SDS011;14925;51.026;13.752;2022-11-15T06:42:20;113.30;;;51.30;;
27489;SDS011;14925;51.026;13.752;2022-11-15T06:44:46;117.55;;;54.05;;
27489;SDS011;14925;51.026;13.752;2022-11-15T06:47:11;112.82;;;51.65;;
27489;SDS011;14925;51.026;13.752;2022-11-15T06:49:44;114.15;;;54.15;;
27489;SDS011;14925;51.026;13.752;2022-11-15T06:52:10;113.72;;;53.92;;
27489;SDS011;14925;51.026;13.752;2022-11-15T06:54:41;113.35;;;53.58;;
27489;SDS011;14925;51.026;13.752;2022-11-15T06:57:06;107.43;;;51.20;;
27489;SDS011;14925;51.026;13.752;2022-11-15T06:59:32;114.80;;;53.17;;
27489;SDS011;14925;51.026;13.752;2022-11-15T07:04:31;108.20;;;50.25;;
27489;SDS011;14925;51.026;13.752;2022-11-15T07:06:56;111.25;;;52.05;;
27489;SDS011;14925;51.026;13.752;2022-11-15T07:09:22;110.10;;;50.65;;
27489;SDS011;14925;51.026;13.752;2022-11-15T07:11:51;108.55;;;52.40;;
27489;SDS011;14925;51.026;13.752;2022-11-15T07:14:21;109.28;;;50.80;;
27489;SDS011;14925;51.026;13.752;2022-11-15T07:16:47;102.20;;;50.15;;
27489;SDS011;14925;51.026;13.752;2022-11-15T07:19:14;100.30;;;47.67;;
27489;SDS011;14925;51.026;13.752;2022-11-15T07:21:45;106.60;;;50.50;;
27489;SDS011;14925;51.026;13.752;2022-11-15T07:24:13;107.40;;;50.35;;
27489;SDS011;14925;51.026;13.752;2022-11-15T07:26:44;103.50;;;49.65;;
27489;SDS011;14925;51.026;13.752;2022-11-15T07:29:09;99.60;;;49.22;;
27489;SDS011;14925;51.026;13.752;2022-11-15T07:31:38;95.63;;;47.67;;
27489;SDS011;14925;51.026;13.752;2022-11-15T07:34:14;96.32;;;47.75;;
27489;SDS011;14925;51.026;13.752;2022-11-15T07:36:40;98.15;;;49.03;;
27489;SDS011;14925;51.026;13.752;2022-11-15T07:39:11;98.10;;;48.38;;
27489;SDS011;14925;51.026;13.752;2022-11-15T07:41:37;100.57;;;48.17;;
27489;SDS011;14925;51.026;13.752;2022-11-15T07:44:03;101.30;;;49.47;;
27489;SDS011;14925;51.026;13.752;2022-11-15T07:46:29;91.45;;;47.30;;
27489;SDS011;14925;51.026;13.752;2022-11-15T07:48:58;94.95;;;46.38;;
27489;SDS011;14925;51.026;13.752;2022-11-15T07:51:24;90.43;;;46.63;;
27489;SDS011;14925;51.026;13.752;2022-11-15T07:53:49;97.45;;;48.58;;
27489;SDS011;14925;51.026;13.752;2022-11-15T07:56:15;94.53;;;47.95;;
27489;SDS011;14925;51.026;13.752;2022-11-15T07:58:46;90.72;;;46.15;;
27489;SDS011;14925;51.026;13.752;2022-11-15T08:01:11;94.25;;;47.35;;
27489;SDS011;14925;51.026;13.752;2022-11-15T08:03:40;90.28;;;44.35;;
27489;SDS011;14925;51.026;13.752;2022-11-15T08:06:08;89.40;;;44.97;;
27489;SDS011;14925;51.026;13.752;2022-11-15T08:08:50;85.78;;;43.55;;
27489;SDS011;14925;51.026;13.752;2022-11-15T08:11:15;83.15;;;42.17;;
27489;SDS011;14925;51.026;13.752;2022-11-15T08:13:44;81.18;;;41.38;;
27489;SDS011;14925;51.026;13.752;2022-11-15T08:16:12;77.15;;;40.13;;
27489;SDS011;14925;51.026;13.752;2022-11-15T08:18:43;76.47;;;39.97;;
27489;SDS011;14925;51.026;13.752;2022-11-15T08:21:12;67.53;;;37.63;;
27489;SDS011;14925;51.026;13.752;2022-11-15T08:23:40;69.85;;;37.10;;
27489;SDS011;14925;51.026;13.752;2022-11-15T08:26:08;67.57;;;37.65;;
27489;SDS011;14925;51.026;13.752;2022-11-15T08:28:36;70.38;;;36.72;;
27489;SDS011;14925;51.026;13.752;2022-11-15T08:31:12;68.93;;;35.97;;
27489;SDS011;14925;51.026;13.752;2022-11-15T08:33:41;66.05;;;34.72;;
27489;SDS011;14925;51.026;13.752;2022-11-15T08:36:15;69.80;;;35.90;;
27489;SDS011;14925;51.026;13.752;2022-11-15T08:38:41;61.35;;;35.08;;
27489;SDS011;14925;51.026;13.752;2022-11-15T08:41:11;60.17;;;33.58;;
27489;SDS011;14925;51.026;13.752;2022-11-15T08:43:42;62.88;;;35.50;;
27489;SDS011;14925;51.026;13.752;2022-11-15T08:46:08;64.55;;;34.45;;
27489;SDS011;14925;51.026;13.752;2022-11-15T08:48:40;56.08;;;30.63;;
27489;SDS011;14925;51.026;13.752;2022-11-15T08:51:05;58.13;;;30.95;;
27489;SDS011;14925;51.026;13.752;2022-11-15T08:53:34;57.58;;;33.20;;
27489;SDS011;14925;51.026;13.752;2022-11-15T08:56:02;62.13;;;33.40;;
27489;SDS011;14925;51.026;13.752;2022-11-15T08:58:36;58.58;;;32.47;;
27489;SDS011;14925;51.026;13.752;2022-11-15T09:01:13;57.63;;;32.80;;
27489;SDS011;14925;51.026;13.752;2022-11-15T09:03:40;59.65;;;33.22;;
27489;SDS011;14925;51.026;13.752;2022-11-15T09:06:09;59.13;;;33.45;;
27489;SDS011;14925;51.026;13.752;2022-11-15T09:08:37;57.63;;;32.35;;
27489;SDS011;14925;51.026;13.752;2022-11-15T09:11:12;62.17;;;33.60;;
27489;SDS011;14925;51.026;13.752;2022-11-15T09:13:47;53.85;;;30.05;;
27489;SDS011;14925;51.026;13.752;2022-11-15T09:16:12;56.03;;;32.90;;
27489;SDS011;14925;51.026;13.752;2022-11-15T09:18:40;55.92;;;32.35;;
27489;SDS011;14925;51.026;13.752;2022-11-15T09:21:06;57.35;;;31.58;;
27489;SDS011;14925;51.026;13.752;2022-11-15T09:23:32;60.95;;;32.60;;
27489;SDS011;14925;51.026;13.752;2022-11-15T09:26:00;58.45;;;32.92;;
27489;SDS011;14925;51.026;13.752;2022-11-15T09:28:27;58.13;;;32.55;;
27489;SDS011;14925;51.026;13.752;2022-11-15T09:30:57;54.25;;;32.55;;
27489;SDS011;14925;51.026;13.752;2022-11-15T09:33:58;55.20;;;31.52;;
27489;SDS011;14925;51.026;13.752;2022-11-15T09:36:23;56.13;;;30.52;;
27489;SDS011;14925;51.026;13.752;2022-11-15T09:38:54;57.40;;;32.55;;
27489;SDS011;14925;51.026;13.752;2022-11-15T09:49:29;51.17;;;30.90;;
27489;SDS011;14925;51.026;13.752;2022-11-15T09:51:55;55.00;;;30.50;;
27489;SDS011;14925;51.026;13.752;2022-11-15T09:54:25;53.47;;;29.83;;
27489;SDS011;14925;51.026;13.752;2022-11-15T10:00:19;54.45;;;30.77;;
27489;SDS011;14925;51.026;13.752;2022-11-15T13:49:01;45.53;;;25.67;;
27489;SDS011;14925;51.026;13.752;2022-11-15T13:51:43;44.47;;;25.02;;
27489;SDS011;14925;51.026;13.752;2022-11-15T13:57:12;43.58;;;24.15;;
27489;SDS011;14925;51.026;13.752;2022-11-15T13:59:52;43.03;;;24.73;;
27489;SDS011;14925;51.026;13.752;2022-11-15T14:02:35;44.88;;;25.60;;
27489;SDS011;14925;51.026;13.752;2022-11-15T14:05:17;42.63;;;25.25;;
27489;SDS011;14925;51.026;13.752;2022-11-15T14:11:19;44.35;;;25.42;;
27489;SDS011;14925;51.026;13.752;2022-11-15T14:16:33;48.83;;;27.83;;
27489;SDS011;14925;51.026;13.752;2022-11-15T14:19:08;46.17;;;25.73;;
27489;SDS011;14925;51.026;13.752;2022-11-15T14:22:07;44.08;;;26.10;;
27489;SDS011;14925;51.026;13.752;2022-11-15T14:25:02;48.80;;;27.67;;
27489;SDS011;14925;51.026;13.752;2022-11-15T14:27:34;49.25;;;26.55;;
27489;SDS011;14925;51.026;13.752;2022-11-15T14:30:28;45.05;;;26.27;;
27489;SDS011;14925;51.026;13.752;2022-11-15T14:32:57;49.38;;;26.98;;
27489;SDS011;14925;51.026;13.752;2022-11-15T14:36:21;49.60;;;26.02;;
27489;SDS011;14925;51.026;13.752;2022-11-15T14:38:48;45.50;;;25.48;;
27489;SDS011;14925;51.026;13.752;2022-11-15T14:41:24;53.85;;;27.95;;
27489;SDS011;14925;51.026;13.752;2022-11-15T14:43:51;46.65;;;25.83;;
27489;SDS011;14925;51.026;13.752;2022-11-15T14:46:29;45.60;;;26.38;;
27489;SDS011;14925;51.026;13.752;2022-11-15T14:49:04;50.65;;;28.88;;
27489;SDS011;14925;51.026;13.752;2022-11-15T14:51:45;45.95;;;26.60;;
27489;SDS011;14925;51.026;13.752;2022-11-15T14:54:13;49.70;;;27.25;;
27489;SDS011;14925;51.026;13.752;2022-11-15T14:56:41;48.65;;;27.42;;
27489;SDS011;14925;51.026;13.752;2022-11-15T14:59:10;49.13;;;27.70;;
27489;SDS011;14925;51.026;13.752;2022-11-15T15:01:49;49.97;;;27.20;;
27489;SDS011;14925;51.026;13.752;2022-11-15T15:04:33;47.10;;;28.10;;
27489;SDS011;14925;51.026;13.752;2022-11-15T15:07:33;47.85;;;26.27;;
27489;SDS011;14925;51.026;13.752;2022-11-15T15:10:04;55.35;;;28.33;;
27489;SDS011;14925;51.026;13.752;2022-11-15T15:12:35;52.13;;;28.67;;
27489;SDS011;14925;51.026;13.752;2022-11-15T15:15:11;51.78;;;26.83;;
27489;SDS011;14925;51.026;13.752;2022-11-15T15:17:56;48.90;;;27.90;;
27489;SDS011;14925;51.026;13.752;2022-11-15T15:20:41;51.03;;;27.67;;
27489;SDS011;14925;51.026;13.752;2022-11-15T15:26:36;48.08;;;28.23;;
27489;SDS011;14925;51.026;13.752;2022-11-15T15:29:03;44.47;;;26.08;;
27489;SDS011;14925;51.026;13.752;2022-11-15T15:31:34;49.17;;;26.80;;
27489;SDS011;14925;51.026;13.752;2022-11-15T15:34:11;47.65;;;27.67;;
27489;SDS011;14925;51.026;13.752;2022-11-15T15:40:08;48.28;;;26.83;;
27489;SDS011;14925;51.026;13.752;2022-11-15T15:42:51;51.95;;;28.80;;
27489;SDS011;14925;51.026;13.752;2022-11-15T15:45:22;53.33;;;28.60;;
27489;SDS011;14925;51.026;13.752;2022-11-15T15:47:53;50.03;;;28.52;;
27489;SDS011;14925;51.026;13.752;2022-11-15T15:53:07;51.28;;;27.90;;
27489;SDS011;14925;51.026;13.752;2022-11-15T15:55:45;56.58;;;28.55;;
27489;SDS011;14925;51.026;13.752;2022-11-15T15:58:23;53.38;;;28.45;;
27489;SDS011;14925;51.026;13.752;2022-11-15T16:01:14;52.50;;;29.20;;
27489;SDS011;14925;51.026;13.752;2022-11-15T16:03:40;53.80;;;29.20;;
27489;SDS011;14925;51.026;13.752;2022-11-15T16:06:25;53.10;;;28.90;;
27489;SDS011;14925;51.026;13.752;2022-11-15T16:09:13;57.35;;;29.67;;
27489;SDS011;14925;51.026;13.752;2022-11-15T16:12:08;51.42;;;27.52;;
27489;SDS011;14925;51.026;13.752;2022-11-15T16:14:43;52.20;;;28.73;;
27489;SDS011;14925;51.026;13.752;2022-11-15T16:17:10;52.85;;;30.48;;
27489;SDS011;14925;51.026;13.752;2022-11-15T16:19:44;50.08;;;29.38;;
27489;SDS011;14925;51.026;13.752;2022-11-15T16:22:23;54.92;;;29.75;;
27489;SDS011;14925;51.026;13.752;2022-11-15T16:25:16;56.30;;;30.40;;
27489;SDS011;14925;51.026;13.752;2022-11-15T16:28:26;53.15;;;28.83;;
27489;SDS011;14925;51.026;13.752;2022-11-15T16:31:03;52.88;;;29.23;;
27489;SDS011;14925;51.026;13.752;2022-11-15T16:33:56;55.08;;;28.95;;
27489;SDS011;14925;51.026;13.752;2022-11-15T16:36:25;54.50;;;28.67;;
27489;SDS011;14925;51.026;13.752;2022-11-15T16:39:00;51.33;;;28.02;;
27489;SDS011;14925;51.026;13.752;2022-11-15T16:41:53;54.55;;;28.73;;
27489;SDS011;14925;51.026;13.752;2022-11-15T16:44:31;48.60;;;27.60;;
27489;SDS011;14925;51.026;13.752;2022-11-15T16:47:04;51.33;;;28.77;;
27489;SDS011;14925;51.026;13.752;2022-11-15T16:50:29;53.05;;;29.17;;
27489;SDS011;14925;51.026;13.752;2022-11-15T16:53:08;52.92;;;28.30;;
27489;SDS011;14925;51.026;13.752;2022-11-15T16:55:40;54.65;;;28.73;;
27489;SDS011;14925;51.026;13.752;2022-11-15T17:31:31;62.30;;;32.63;;
27489;SDS011;14925;51.026;13.752;2022-11-15T17:34:06;67.15;;;32.30;;
27489;SDS011;14925;51.026;13.752;2022-11-15T17:36:43;62.28;;;32.67;;
27489;SDS011;14925;51.026;13.752;2022-11-15T17:39:09;62.33;;;32.83;;
27489;SDS011;14925;51.026;13.752;2022-11-15T17:41:45;61.28;;;32.85;;
27489;SDS011;14925;51.026;13.752;2022-11-15T17:44:14;71.63;;;34.97;;
27489;SDS011;14925;51.026;13.752;2022-11-15T17:46:39;63.97;;;32.20;;
27489;SDS011;14925;51.026;13.752;2022-11-15T17:49:05;61.65;;;32.30;;
27489;SDS011;14925;51.026;13.752;2022-11-15T17:51:45;63.67;;;31.95;;
27489;SDS011;14925;51.026;13.752;2022-11-15T17:54:13;68.65;;;33.72;;
27489;SDS011;14925;51.026;13.752;2022-11-15T17:57:08;68.10;;;34.25;;
27489;SDS011;14925;51.026;13.752;2022-11-15T17:59:49;64.53;;;32.63;;
27489;SDS011;14925;51.026;13.752;2022-11-15T18:02:21;66.00;;;33.15;;
27489;SDS011;14925;51.026;13.752;2022-11-15T18:04:57;70.20;;;33.47;;
27489;SDS011;14925;51.026;13.752;2022-11-15T18:07:46;63.08;;;30.92;;
27489;SDS011;14925;51.026;13.752;2022-11-15T18:10:12;65.17;;;32.77;;
27489;SDS011;14925;51.026;13.752;2022-11-15T18:12:39;63.42;;;32.40;;
27489;SDS011;14925;51.026;13.752;2022-11-15T18:15:05;60.88;;;30.90;;
27489;SDS011;14925;51.026;13.752;2022-11-15T18:17:33;59.92;;;31.85;;
27489;SDS011;14925;51.026;13.752;2022-11-15T18:19:59;68.75;;;32.40;;
27489;SDS011;14925;51.026;13.752;2022-11-15T18:22:24;63.25;;;32.55;;
27489;SDS011;14925;51.026;13.752;2022-11-15T18:24:59;59.45;;;31.65;;
27489;SDS011;14925;51.026;13.752;2022-11-15T18:27:25;65.32;;;33.35;;
27489;SDS011;14925;51.026;13.752;2022-11-15T18:29:57;60.55;;;31.38;;
27489;SDS011;14925;51.026;13.752;2022-11-15T18:32:24;59.78;;;31.83;;
27489;SDS011;14925;51.026;13.752;2022-11-15T18:34:53;64.32;;;32.00;;
27489;SDS011;14925;51.026;13.752;2022-11-15T18:37:24;57.35;;;30.23;;
27489;SDS011;14925;51.026;13.752;2022-11-15T18:39:53;56.42;;;29.20;;
27489;SDS011;14925;51.026;13.752;2022-11-15T18:42:20;54.30;;;29.35;;
27489;SDS011;14925;51.026;13.752;2022-11-15T18:44:46;54.63;;;28.60;;
27489;SDS011;14925;51.026;13.752;2022-11-15T18:47:20;59.90;;;30.70;;
27489;SDS011;14925;51.026;13.752;2022-11-15T18:49:48;53.35;;;28.23;;
27489;SDS011;14925;51.026;13.752;2022-11-15T18:52:15;59.22;;;29.80;;
27489;SDS011;14925;51.026;13.752;2022-11-15T18:54:44;57.78;;;30.33;;
27489;SDS011;14925;51.026;13.752;2022-11-15T18:57:09;59.67;;;29.42;;
27489;SDS011;14925;51.026;13.752;2022-11-15T18:59:34;56.58;;;29.45;;
27489;SDS011;14925;51.026;13.752;2022-11-15T19:02:00;54.15;;;28.30;;
27489;SDS011;14925;51.026;13.752;2022-11-15T19:04:25;57.95;;;29.45;;
27489;SDS011;14925;51.026;13.752;2022-11-15T19:06:51;55.85;;;29.13;;
27489;SDS011;14925;51.026;13.752;2022-11-15T19:09:17;52.70;;;27.40;;
27489;SDS011;14925;51.026;13.752;2022-11-15T19:11:46;60.92;;;29.08;;
27489;SDS011;14925;51.026;13.752;2022-11-15T19:14:14;63.90;;;30.60;;
27489;SDS011;14925;51.026;13.752;2022-11-15T19:16:43;56.47;;;29.55;;
27489;SDS011;14925;51.026;13.752;2022-11-15T19:19:21;53.97;;;28.42;;
27489;SDS011;14925;51.026;13.752;2022-11-15T19:21:54;52.85;;;28.00;;
27489;SDS011;14925;51.026;13.752;2022-11-15T19:24:22;57.85;;;29.55;;
27489;SDS011;14925;51.026;13.752;2022-11-15T19:26:51;54.03;;;28.42;;
27489;SDS011;14925;51.026;13.752;2022-11-15T19:29:19;51.97;;;28.25;;
27489;SDS011;14925;51.026;13.752;2022-11-15T19:31:46;54.03;;;27.58;;
27489;SDS011;14925;51.026;13.752;2022-11-15T19:34:12;56.03;;;28.58;;
27489;SDS011;14925;51.026;13.752;2022-11-15T19:36:42;56.63;;;28.20;;
27489;SDS011;14925;51.026;13.752;2022-11-15T19:39:25;56.13;;;29.00;;
27489;SDS011;14925;51.026;13.752;2022-11-15T19:41:53;56.38;;;27.65;;
27489;SDS011;14925;51.026;13.752;2022-11-15T19:44:23;53.90;;;27.00;;
27489;SDS011;14925;51.026;13.752;2022-11-15T19:46:54;51.97;;;26.60;;
27489;SDS011;14925;51.026;13.752;2022-11-15T19:49:20;49.72;;;25.20;;
27489;SDS011;14925;51.026;13.752;2022-11-15T19:54:44;51.03;;;26.38;;
27489;SDS011;14925;51.026;13.752;2022-11-15T19:57:20;45.40;;;24.90;;
27489;SDS011;14925;51.026;13.752;2022-11-15T19:59:48;50.17;;;25.90;;